Time;durP1;ratioP1;P1;durP2;ratioP2;P2;SDS_P1;SDS_P2;PMS_P1;PMS_P2;Temp;Humidity;BMP_temperature;BMP_pressure;BME280_temperature;BME280_humidity;BME280_pressure;Samples;Min_cycle;Max_cycle;Signal;HPM_P1;HPM_P2
2021/08/23 00:00:08;;;;;;;18.10;8.40;;;;;;;18.90;56.17;99051.91;112374;1204;97742;-81
2021/08/23 00:02:55;;;;;;;17.80;8.00;;;;;;;18.86;55.80;99051.23;112423;1204;109712;-78
2021/08/23 00:05:23;;;;;;;17.30;8.60;;;;;;;18.71;55.73;99046.89;112327;1205;96859;-78
2021/08/23 00:07:51;;;;;;;17.20;8.20;;;;;;;18.55;55.71;99047.59;112375;1195;98006;-79
2021/08/23 00:10:24;;;;;;;16.80;8.40;;;;;;;18.39;55.87;99042.45;112349;1206;111097;-78
2021/08/23 00:12:51;;;;;;;20.30;8.80;;;;;;;18.26;56.10;99043.62;112438;1200;97647;-79
2021/08/23 00:15:24;;;;;;;19.30;8.90;;;;;;;18.14;56.35;99038.15;112354;1205;107535;-79
2021/08/23 00:17:51;;;;;;;18.30;8.50;;;;;;;18.09;56.81;99041.79;112446;1199;97568;-78
2021/08/23 00:20:41;;;;;;;16.70;8.40;;;;;;;18.10;56.98;99041.10;112381;1195;97675;-78
2021/08/23 00:23:12;;;;;;;18.00;9.10;;;;;;;18.16;57.17;99037.10;112594;1195;111168;-80
2021/08/23 00:25:48;;;;;;;19.40;9.10;;;;;;;18.21;57.21;99035.48;112343;1196;97671;-78
2021/08/23 00:28:20;;;;;;;17.10;9.20;;;;;;;18.25;57.39;99036.86;112248;1204;107552;-78
2021/08/23 00:30:52;;;;;;;17.60;8.70;;;;;;;18.28;57.33;99033.33;112314;1196;97552;-79
2021/08/23 00:33:20;;;;;;;16.20;8.30;;;;;;;18.31;57.31;99029.27;112259;1200;97592;-79
2021/08/23 00:35:48;;;;;;;19.50;9.70;;;;;;;18.32;57.49;99032.17;112480;1203;111304;-79
2021/08/23 00:38:16;;;;;;;17.50;8.00;;;;;;;18.34;57.42;99028.37;113690;1195;95536;-79
2021/08/23 00:40:44;;;;;;;18.30;9.50;;;;;;;18.36;57.38;99032.31;112270;1200;107299;-80
2021/08/23 00:43:11;;;;;;;20.50;9.00;;;;;;;18.36;57.41;99030.85;112443;1203;97593;-79
2021/08/23 00:45:39;;;;;;;21.00;9.40;;;;;;;18.34;57.61;99030.96;112428;1200;97639;-78
2021/08/23 00:48:07;;;;;;;25.00;9.50;;;;;;;18.34;57.54;99028.07;112436;1200;111132;-78
2021/08/23 00:50:35;;;;;;;18.40;9.90;;;;;;;18.35;57.72;99029.51;112453;1203;97577;-75
2021/08/23 00:53:07;;;;;;;19.10;8.60;;;;;;;18.36;57.76;99030.46;112424;1203;107268;-78
2021/08/23 00:55:37;;;;;;;17.60;8.70;;;;;;;18.38;57.91;99029.76;112387;1202;95385;-79
2021/08/23 00:58:05;;;;;;;17.90;9.50;;;;;;;18.40;57.89;99029.56;112352;1204;98251;-78
2021/08/23 01:00:40;;;;;;;20.30;9.70;;;;;;;18.40;57.94;99025.80;112522;1195;111137;-79
2021/08/23 01:03:20;;;;;;;21.20;9.90;;;;;;;18.40;58.11;99021.83;112390;1200;97660;-78
2021/08/23 01:05:49;;;;;;;17.40;8.60;;;;;;;18.41;58.13;99018.46;112380;1203;107591;-80
2021/08/23 01:08:26;;;;;;;19.40;9.10;;;;;;;18.42;58.11;99018.56;112338;1203;95424;-80
2021/08/23 01:11:04;;;;;;;18.50;9.60;;;;;;;18.40;58.23;99020.88;112410;1197;98179;-80
2021/08/23 01:13:37;;;;;;;21.40;9.40;;;;;;;18.42;58.32;99018.42;112316;1203;111910;-80
2021/08/23 01:16:05;;;;;;;19.20;9.40;;;;;;;18.41;58.21;99014.77;112384;1195;98363;-80
2021/08/23 01:18:33;;;;;;;20.60;9.50;;;;;;;18.38;58.43;99013.12;112411;1202;107475;-80
2021/08/23 01:21:07;;;;;;;20.30;10.00;;;;;;;18.37;58.38;99012.28;112425;1197;97541;-79
2021/08/23 01:23:41;;;;;;;20.40;9.30;;;;;;;18.38;58.54;99013.77;112400;1195;97603;-79
2021/08/23 01:26:15;;;;;;;18.80;9.90;;;;;;;18.38;58.66;99015.39;112403;1204;111105;-78
2021/08/23 01:28:58;;;;;;;19.90;9.90;;;;;;;18.39;58.60;99014.95;112410;1205;97640;-78
2021/08/23 01:31:59;;;;;;;19.60;9.20;;;;;;;18.36;58.61;99013.63;112403;1203;107475;-79
2021/08/23 01:34:32;;;;;;;18.60;9.30;;;;;;;18.34;58.87;99013.63;112398;1195;98367;-79
2021/08/23 01:37:07;;;;;;;19.00;9.90;;;;;;;18.32;58.79;99012.10;112389;1196;97584;-78
2021/08/23 01:39:35;;;;;;;20.90;10.10;;;;;;;18.28;58.70;99011.02;112383;1202;111208;-79
2021/08/23 01:42:03;;;;;;;18.50;9.10;;;;;;;18.26;58.89;99006.58;112437;1197;97554;-78
2021/08/23 01:44:31;;;;;;;23.20;10.40;;;;;;;18.28;59.03;99004.83;112328;1203;108317;-79
2021/08/23 01:46:59;;;;;;;18.80;9.80;;;;;;;18.30;59.12;99011.60;112421;1200;97718;-77
2021/08/23 01:49:32;;;;;;;20.20;10.00;;;;;;;18.32;59.10;99010.64;112394;1194;98045;-79
2021/08/23 01:52:00;;;;;;;20.30;10.30;;;;;;;18.33;59.13;99009.98;112347;1203;111064;-80
2021/08/23 01:54:31;;;;;;;21.40;10.30;;;;;;;18.33;59.25;99010.34;112389;1203;97489;-80
2021/08/23 01:56:58;;;;;;;20.50;10.30;;;;;;;18.34;59.41;98998.65;112381;1202;107236;-80
2021/08/23 01:59:26;;;;;;;19.60;9.70;;;;;;;18.34;59.41;98995.19;112436;1200;97630;-79
2021/08/23 02:01:54;;;;;;;19.20;10.20;;;;;;;18.34;59.41;98992.15;112389;1195;97676;-80
2021/08/23 02:04:29;;;;;;;20.60;10.50;;;;;;;18.35;59.48;98994.23;112428;1198;112335;-81
2021/08/23 02:06:59;;;;;;;19.20;10.00;;;;;;;18.34;59.41;98990.16;112377;1203;97679;-80
2021/08/23 02:09:27;;;;;;;18.20;9.30;;;;;;;18.35;59.50;98992.63;112404;1203;105845;-79
2021/08/23 02:11:55;;;;;;;20.10;10.00;;;;;;;18.35;59.78;98990.73;112416;1200;95041;-79
2021/08/23 02:14:23;;;;;;;21.30;10.10;;;;;;;18.35;59.62;98996.15;112405;1203;97533;-80
2021/08/23 02:16:54;;;;;;;19.70;10.30;;;;;;;18.36;59.67;98995.52;112464;1195;111240;-77
2021/08/23 02:19:26;;;;;;;18.60;9.90;;;;;;;18.36;59.86;98993.84;112436;1203;97661;-79
2021/08/23 02:22:01;;;;;;;21.50;10.30;;;;;;;18.36;59.80;98997.88;112456;1203;106695;-80
2021/08/23 02:24:31;;;;;;;19.60;10.80;;;;;;;18.35;60.02;98998.08;112405;1203;96452;-80
2021/08/23 02:27:03;;;;;;;19.00;10.20;;;;;;;18.36;60.02;98998.07;112369;1195;96459;-79
2021/08/23 02:29:31;;;;;;;17.80;9.90;;;;;;;18.35;60.01;98995.25;112331;1195;111185;-80
2021/08/23 02:31:59;;;;;;;20.50;9.80;;;;;;;18.35;60.03;98997.20;112358;1200;97542;-77
2021/08/23 02:34:31;;;;;;;21.30;11.40;;;;;;;18.34;60.23;98990.34;112360;1203;107375;-77
2021/08/23 02:36:59;;;;;;;21.10;10.80;;;;;;;18.34;60.23;98987.89;112346;1197;95031;-77
2021/08/23 02:39:29;;;;;;;22.70;11.50;;;;;;;18.34;60.32;98982.84;112326;1196;97673;-76
2021/08/23 02:41:57;;;;;;;21.90;11.20;;;;;;;18.32;60.31;98972.44;112364;1203;111482;-78
2021/08/23 02:44:26;;;;;;;22.10;11.50;;;;;;;18.29;60.51;98962.83;112340;1197;97583;-76
2021/08/23 02:46:54;;;;;;;20.50;10.50;;;;;;;18.29;60.55;98956.77;112344;1203;107032;-76
2021/08/23 02:49:22;;;;;;;21.50;10.50;;;;;;;18.28;60.51;98941.77;112766;1196;97807;-76
2021/08/23 02:51:51;;;;;;;21.20;10.80;;;;;;;18.28;60.60;98940.18;113010;1197;95835;-76
2021/08/23 02:54:20;;;;;;;20.10;10.60;;;;;;;18.28;60.74;98947.75;112609;1196;111115;-76
2021/08/23 02:56:49;;;;;;;21.30;11.20;;;;;;;18.28;60.74;98957.21;112191;1203;97570;-76
2021/08/23 02:59:17;;;;;;;23.20;10.40;;;;;;;18.28;60.72;98957.61;113357;1196;107616;-74
2021/08/23 03:01:45;;;;;;;20.60;10.90;;;;;;;18.24;60.79;98956.02;112730;1197;97733;-76
2021/08/23 03:04:13;;;;;;;21.80;10.40;;;;;;;18.22;60.83;98957.66;112339;1204;97579;-77
2021/08/23 03:06:41;;;;;;;20.30;10.60;;;;;;;18.22;61.06;98955.31;112312;1200;110122;-78
2021/08/23 03:09:14;;;;;;;23.00;11.00;;;;;;;18.22;61.14;98953.08;112304;1196;97611;-77
2021/08/23 03:11:46;;;;;;;20.10;10.90;;;;;;;18.20;61.22;98957.69;112290;1203;107427;-75
2021/08/23 03:14:14;;;;;;;19.30;9.80;;;;;;;18.16;60.93;98959.63;112281;1200;97606;-77
2021/08/23 03:16:42;;;;;;;21.80;10.30;;;;;;;18.02;60.69;98958.13;112390;1195;96993;-76
2021/08/23 03:19:09;;;;;;;19.80;10.90;;;;;;;17.87;60.74;98948.59;112293;1204;111206;-77
2021/08/23 03:21:42;;;;;;;22.00;12.00;;;;;;;17.70;61.01;98941.27;112297;1203;97544;-77
2021/08/23 03:24:14;;;;;;;20.50;10.60;;;;;;;17.56;61.07;98937.75;112325;1204;111525;-78
2021/08/23 03:26:42;;;;;;;22.20;12.00;;;;;;;17.47;61.40;98936.69;112319;1198;97610;-79
2021/08/23 03:29:14;;;;;;;23.40;11.00;;;;;;;17.42;61.64;98932.30;112302;1204;94941;-77
2021/08/23 03:31:46;;;;;;;22.00;11.60;;;;;;;17.38;61.82;98926.50;112332;1204;111078;-78
2021/08/23 03:34:14;;;;;;;23.20;11.70;;;;;;;17.37;62.08;98921.98;112347;1203;97584;-77
2021/08/23 03:36:45;;;;;;;21.80;11.90;;;;;;;17.38;62.17;98924.95;112312;1204;107626;-77
2021/08/23 03:39:16;;;;;;;;;;;;;;;17.41;62.24;98926.41;112258;1200;95111;-78
2021/08/23 03:41:48;;;;;;;22.50;12.40;;;;;;;17.36;62.08;98931.75;112289;1198;97696;-78
2021/08/23 03:44:16;;;;;;;22.50;13.10;;;;;;;17.32;62.14;98933.82;112280;1204;110158;-77
2021/08/23 03:46:44;;;;;;;21.20;11.20;;;;;;;17.32;62.45;98936.55;112273;1197;97673;-77
2021/08/23 03:49:12;;;;;;;25.30;11.70;;;;;;;17.34;62.63;98936.14;112242;1204;107424;-76
2021/08/23 03:51:39;;;;;;;23.20;12.30;;;;;;;17.35;62.69;98942.30;112281;1204;97559;-77
2021/08/23 03:54:12;;;;;;;21.30;12.30;;;;;;;17.36;62.60;98947.59;112275;1200;98023;-78
2021/08/23 03:56:39;;;;;;;24.90;12.40;;;;;;;17.35;62.96;98946.55;112254;1203;111066;-78
2021/08/23 03:59:07;;;;;;;20.60;11.90;;;;;;;17.38;62.89;98946.29;112334;1204;96842;-77
2021/08/23 04:01:35;;;;;;;22.50;12.50;;;;;;;17.42;63.13;98948.90;112274;1204;107169;-78
2021/08/23 04:04:05;;;;;;;22.30;12.40;;;;;;;17.48;63.10;98947.29;112127;1204;95986;-77
2021/08/23 04:06:33;;;;;;;21.80;12.60;;;;;;;17.51;63.24;98944.02;112246;1204;97601;-77
2021/08/23 04:09:01;;;;;;;24.10;13.30;;;;;;;17.56;63.19;98944.46;112285;1198;110964;-78
2021/08/23 04:11:29;;;;;;;24.60;15.00;;;;;;;17.60;63.41;98944.27;112307;1200;98017;-79
2021/08/23 04:13:56;;;;;;;24.40;14.70;;;;;;;17.63;63.29;98944.44;112324;1204;107420;-79
2021/08/23 04:16:27;;;;;;;29.60;17.00;;;;;;;17.66;63.57;98941.98;112238;1203;97671;-76
2021/08/23 04:18:59;;;;;;;24.10;14.40;;;;;;;17.68;63.44;98941.59;112289;1196;97593;-77
2021/08/23 04:21:26;;;;;;;29.00;14.70;;;;;;;17.70;63.53;98940.28;112310;1204;111078;-76
2021/08/23 04:23:54;;;;;;;24.90;14.90;;;;;;;17.73;63.62;98936.99;112311;1197;97780;-75
2021/08/23 04:26:22;;;;;;;23.20;14.50;;;;;;;17.74;63.62;98936.66;112565;1196;108104;-76
2021/08/23 04:28:50;;;;;;;28.20;15.60;;;;;;;17.76;63.64;98936.17;112291;1198;97649;-77
2021/08/23 04:31:18;;;;;;;25.60;16.20;;;;;;;17.75;63.67;98934.23;112317;1204;97601;-75
2021/08/23 04:33:47;;;;;;;23.60;14.30;;;;;;;17.76;63.79;98932.73;112321;1198;110074;-75
2021/08/23 04:36:15;;;;;;;23.50;13.70;;;;;;;17.76;63.86;98932.36;112300;1203;97688;-85
2021/08/23 04:38:48;;;;;;;21.70;13.40;;;;;;;17.76;63.94;98932.19;112253;1197;107465;-75
2021/08/23 04:41:18;;;;;;;22.40;13.30;;;;;;;17.76;64.12;98927.63;112274;1196;97596;-76
2021/08/23 04:43:46;;;;;;;22.00;12.80;;;;;;;17.78;64.05;98926.23;112684;1196;97598;-75
2021/08/23 04:46:14;;;;;;;22.50;13.60;;;;;;;17.78;64.02;98921.04;112324;1196;111112;-79
2021/08/23 04:48:42;;;;;;;25.40;15.60;;;;;;;17.78;63.82;98922.95;112288;1198;97495;-82
2021/08/23 04:51:09;;;;;;;31.90;21.90;;;;;;;17.77;63.90;98922.04;112300;1204;107225;-79
2021/08/23 04:53:37;;;;;;;30.90;18.60;;;;;;;17.77;64.05;98924.55;112255;1195;97661;-81
2021/08/23 04:56:14;;;;;;;36.50;23.20;;;;;;;17.76;64.02;98927.26;112297;1196;97723;-81
2021/08/23 04:58:43;;;;;;;36.20;24.00;;;;;;;17.78;64.34;98929.75;112329;1204;111557;-81
2021/08/23 05:01:16;;;;;;;35.30;21.50;;;;;;;17.83;64.35;98928.23;112822;1196;95877;-82
2021/08/23 05:03:44;;;;;;;27.80;17.10;;;;;;;17.87;64.39;98932.25;112278;1196;107374;-81
2021/08/23 05:06:12;;;;;;;29.90;15.80;;;;;;;17.90;64.44;98933.06;112300;1203;97535;-81
2021/08/23 05:08:44;;;;;;;24.00;14.70;;;;;;;17.92;64.53;98937.65;112326;1196;95981;-83
2021/08/23 05:11:12;;;;;;;25.10;14.60;;;;;;;17.96;64.53;98938.05;112210;1204;111078;-82
2021/08/23 05:13:39;;;;;;;23.00;13.60;;;;;;;18.00;64.69;98941.31;112321;1204;95087;-84
2021/08/23 05:16:07;;;;;;;21.30;10.90;;;;;;;18.02;64.34;98945.95;112233;1204;107485;-83
2021/08/23 05:18:44;;;;;;;22.00;10.90;;;;;;;17.97;64.24;98947.55;112357;1195;95128;-80
2021/08/23 05:21:12;;;;;;;20.70;9.60;;;;;;;17.91;64.17;98946.02;112327;1204;97669;-82
2021/08/23 05:23:40;;;;;;;18.50;9.70;;;;;;;17.84;64.36;98945.82;112308;1197;110938;-83
2021/08/23 05:26:13;;;;;;;19.90;9.10;;;;;;;17.77;64.60;98949.11;112571;1196;97581;-83
2021/08/23 05:28:41;;;;;;;18.30;9.60;;;;;;;17.70;64.84;98953.56;112256;1204;107516;-83
2021/08/23 05:31:09;;;;;;;17.90;9.00;;;;;;;17.66;64.80;98953.23;112367;1198;97607;-84
2021/08/23 05:33:37;;;;;;;21.40;9.90;;;;;;;17.64;64.90;98961.55;112320;1197;95152;-85
2021/08/23 05:36:05;;;;;;;19.60;10.50;;;;;;;17.63;64.93;98966.83;112295;1196;111109;-85
2021/08/23 05:38:33;;;;;;;19.20;9.90;;;;;;;17.61;65.03;98970.25;112366;1198;97676;-85
2021/08/23 05:41:01;;;;;;;18.50;10.20;;;;;;;17.60;65.22;98971.63;112259;1203;107234;-82
2021/08/23 05:43:29;;;;;;;17.20;9.00;;;;;;;17.60;65.28;98975.96;112291;1197;97685;-81
2021/08/23 05:45:59;;;;;;;19.40;10.70;;;;;;;17.60;65.24;98973.63;112320;1204;97671;-83
2021/08/23 05:48:32;;;;;;;19.40;10.10;;;;;;;17.58;65.38;98974.50;112276;1204;111084;-83
2021/08/23 05:51:04;;;;;;;20.00;9.80;;;;;;;17.57;65.52;98975.84;112291;1204;97578;-83
2021/08/23 05:53:32;;;;;;;20.90;11.10;;;;;;;17.56;65.55;98982.42;112283;1204;107846;-83
2021/08/23 05:55:59;;;;;;;21.00;10.50;;;;;;;17.55;65.70;98984.90;112266;1198;97621;-84
2021/08/23 05:58:27;;;;;;;18.20;9.50;;;;;;;17.55;65.72;98981.83;112306;1197;97671;-83
2021/08/23 06:00:55;;;;;;;18.30;10.10;;;;;;;17.54;65.99;98977.41;112313;1197;110334;-81
2021/08/23 06:03:32;;;;;;;19.50;10.20;;;;;;;17.51;66.15;98979.14;112312;1204;97660;-83
2021/08/23 06:06:09;;;;;;;19.40;11.10;;;;;;;17.50;66.26;98979.50;112261;1204;107474;-83
2021/08/23 06:08:37;;;;;;;23.90;12.50;;;;;;;17.48;66.34;98978.11;112307;1196;95114;-83
2021/08/23 06:11:05;;;;;;;20.30;11.50;;;;;;;17.47;66.60;98982.11;112368;1204;97645;-85
2021/08/23 06:13:33;;;;;;;20.40;11.90;;;;;;;17.45;66.78;98984.11;112299;1197;110983;-83
2021/08/23 06:16:01;;;;;;;21.80;11.40;;;;;;;17.46;66.81;98986.52;112292;1197;97568;-84
2021/08/23 06:18:33;;;;;;;22.00;11.10;;;;;;;17.46;66.89;98986.30;112251;1204;107399;-83
2021/08/23 06:21:03;;;;;;;20.10;11.30;;;;;;;17.47;67.11;98988.99;112214;1196;97773;-83
2021/08/23 06:23:31;;;;;;;21.90;11.80;;;;;;;17.47;67.09;98991.85;112438;1196;97687;-83
2021/08/23 06:25:59;;;;;;;20.50;10.80;;;;;;;17.46;67.32;98988.34;112410;1197;111027;-83
2021/08/23 06:28:26;;;;;;;21.50;13.70;;;;;;;17.47;67.28;98992.35;112323;1200;95216;-82
2021/08/23 06:30:54;;;;;;;23.80;13.90;;;;;;;17.46;67.44;98990.23;112303;1204;107350;-83
2021/08/23 06:33:27;;;;;;;21.80;13.60;;;;;;;17.47;67.69;98989.30;112313;1197;97635;-82
2021/08/23 06:35:55;;;;;;;23.20;14.00;;;;;;;17.49;67.41;98991.05;112325;1200;97709;-82
2021/08/23 06:38:23;;;;;;;19.10;12.10;;;;;;;17.49;67.59;98991.59;112301;1204;110207;-82
2021/08/23 06:40:51;;;;;;;20.70;12.10;;;;;;;17.49;67.76;98989.41;112279;1197;97637;-84
2021/08/23 06:43:19;;;;;;;19.50;11.50;;;;;;;17.48;67.85;98989.67;112292;1204;107454;-82
2021/08/23 06:45:46;;;;;;;18.80;10.70;;;;;;;17.48;67.93;98990.75;112317;1196;97655;-83
2021/08/23 06:48:14;;;;;;;23.30;12.10;;;;;;;17.48;68.14;98990.95;112349;1204;97517;-83
2021/08/23 06:50:46;;;;;;;21.80;11.50;;;;;;;17.47;67.89;98992.52;112227;1204;110140;-81
2021/08/23 06:53:15;;;;;;;19.70;9.90;;;;;;;17.46;68.14;98993.13;112336;1204;97717;-82
2021/08/23 06:55:43;;;;;;;19.10;11.10;;;;;;;17.46;68.21;98992.25;112314;1204;107544;-83
2021/08/23 06:58:11;;;;;;;23.80;11.90;;;;;;;17.47;68.24;98993.60;112296;1204;97646;-84
2021/08/23 07:00:39;;;;;;;18.80;10.30;;;;;;;17.48;68.34;98995.99;112320;1198;95054;-84
2021/08/23 07:03:07;;;;;;;20.20;11.50;;;;;;;17.50;68.36;98998.33;112313;1204;111146;-84
2021/08/23 07:05:38;;;;;;;19.40;10.20;;;;;;;17.51;68.48;98997.87;112270;1204;95128;-85
2021/08/23 07:08:06;;;;;;;18.00;10.20;;;;;;;17.54;68.50;98998.97;112259;1204;107482;-83
2021/08/23 07:10:34;;;;;;;20.70;10.40;;;;;;;17.56;68.51;98999.80;112294;1204;95044;-82
2021/08/23 07:13:02;;;;;;;17.80;10.00;;;;;;;17.59;68.57;99000.98;112335;1195;97644;-81
2021/08/23 07:15:30;;;;;;;20.30;10.00;;;;;;;17.60;68.77;98999.23;112309;1204;111130;-82
2021/08/23 07:17:58;;;;;;;19.00;9.80;;;;;;;17.64;68.82;98999.09;112330;1204;97657;-84
2021/08/23 07:20:27;;;;;;;16.90;8.30;;;;;;;17.66;68.81;98994.13;112244;1197;107524;-85
2021/08/23 07:22:55;;;;;;;19.20;8.70;;;;;;;17.67;68.85;98997.63;112281;1197;97667;-84
2021/08/23 07:25:23;;;;;;;19.60;9.80;;;;;;;17.66;68.80;98998.63;112343;1198;97574;-84
2021/08/23 07:27:50;;;;;;;20.90;9.80;;;;;;;17.65;68.81;99001.91;112345;1197;111547;-83
2021/08/23 07:30:23;;;;;;;18.80;9.60;;;;;;;17.64;69.03;99000.30;112309;1204;95444;-84
2021/08/23 07:32:52;;;;;;;17.90;9.50;;;;;;;17.61;69.13;99005.39;112272;1196;106187;-82
2021/08/23 07:35:24;;;;;;;18.20;9.40;;;;;;;17.61;69.18;99005.23;112311;1204;97574;-83
2021/08/23 07:37:52;;;;;;;21.70;9.20;;;;;;;17.62;69.33;99007.84;112283;1196;98269;-82
2021/08/23 07:40:25;;;;;;;16.40;8.80;;;;;;;17.63;69.56;99004.70;112292;1203;111146;-83
2021/08/23 07:42:54;;;;;;;17.80;9.50;;;;;;;17.64;69.47;99006.21;112342;1197;96481;-83
2021/08/23 07:45:27;;;;;;;19.50;9.60;;;;;;;17.65;69.59;99006.92;112298;1204;108099;-83
2021/08/23 07:47:54;;;;;;;16.80;8.70;;;;;;;17.67;69.54;99009.29;112333;1204;97694;-82
2021/08/23 07:50:27;;;;;;;17.80;9.20;;;;;;;17.68;69.70;99008.30;112317;1203;97654;-84
2021/08/23 07:52:54;;;;;;;17.60;8.30;;;;;;;17.70;69.55;99009.35;112349;1197;111081;-83
2021/08/23 07:55:22;;;;;;;15.90;8.50;;;;;;;17.71;69.89;99009.89;112342;1204;97671;-83
2021/08/23 07:57:55;;;;;;;16.80;8.30;;;;;;;17.75;69.94;99012.48;112286;1204;106499;-83
2021/08/23 08:00:28;;;;;;;17.70;8.00;;;;;;;17.78;70.09;99016.27;112295;1199;97673;-83
2021/08/23 08:02:56;;;;;;;16.20;8.20;;;;;;;17.81;69.79;99024.56;112354;1204;97561;-83
2021/08/23 08:05:24;;;;;;;16.00;8.10;;;;;;;17.82;70.21;99024.00;112298;1204;110923;-85
2021/08/23 08:07:52;;;;;;;17.20;8.90;;;;;;;17.87;70.20;99022.62;112364;1204;97571;-85
2021/08/23 08:10:24;;;;;;;17.30;8.40;;;;;;;17.92;70.29;99026.28;112305;1203;107497;-85
2021/08/23 08:12:52;;;;;;;15.20;7.60;;;;;;;17.96;70.25;99029.78;112319;1197;97554;-84
2021/08/23 08:15:19;;;;;;;15.20;7.30;;;;;;;18.00;69.92;99031.34;112272;1196;97609;-85
2021/08/23 08:17:52;;;;;;;16.00;8.30;;;;;;;18.02;70.22;99035.13;112339;1196;111134;-86
2021/08/23 08:20:25;;;;;;;15.90;9.00;;;;;;;18.06;70.27;99032.20;112336;1204;97681;-84
2021/08/23 08:22:53;;;;;;;17.50;8.10;;;;;;;18.10;70.27;99027.44;112283;1204;106597;-84
2021/08/23 08:25:30;;;;;;;15.70;7.90;;;;;;;18.13;70.22;99031.95;112299;1196;97702;-84
2021/08/23 08:27:58;;;;;;;15.70;7.50;;;;;;;18.19;70.41;99035.73;112310;1198;95065;-83
2021/08/23 08:30:25;;;;;;;17.80;7.60;;;;;;;18.20;70.35;99040.41;112307;1196;111137;-82
2021/08/23 08:33:00;;;;;;;18.60;8.40;;;;;;;18.23;70.56;99046.39;112257;1204;97679;-83
2021/08/23 08:35:28;;;;;;;14.90;7.30;;;;;;;18.27;70.49;99045.42;112291;1198;107405;-82
2021/08/23 08:37:59;;;;;;;15.80;7.50;;;;;;;18.30;70.44;99049.27;112334;1197;97751;-82
2021/08/23 08:40:32;;;;;;;14.50;8.20;;;;;;;18.30;70.40;99048.59;112295;1204;97562;-84
2021/08/23 08:43:00;;;;;;;16.20;7.70;;;;;;;18.30;70.41;99045.83;112305;1203;111074;-82
2021/08/23 08:45:30;;;;;;;19.20;8.40;;;;;;;18.32;70.38;99049.80;112370;1197;97596;-84
2021/08/23 08:48:08;;;;;;;16.60;8.00;;;;;;;18.33;70.57;99048.23;112270;1204;108928;-82
2021/08/23 08:50:35;;;;;;;19.50;8.10;;;;;;;18.36;70.42;99053.52;112261;1204;97590;-84
2021/08/23 08:53:08;;;;;;;13.50;7.10;;;;;;;18.36;70.52;99053.14;112286;1198;97606;-82
2021/08/23 08:55:42;;;;;;;16.70;8.10;;;;;;;18.34;70.46;99054.09;112264;1204;111141;-83
2021/08/23 08:58:10;;;;;;;16.00;7.60;;;;;;;18.30;70.68;99054.27;112370;1196;97608;-82
2021/08/23 09:00:43;;;;;;;16.90;8.40;;;;;;;18.32;70.73;99055.94;112389;1204;108192;-82
2021/08/23 09:03:11;;;;;;;15.90;8.20;;;;;;;18.34;70.82;99055.40;112226;1197;97721;-83
2021/08/23 09:05:51;;;;;;;13.90;7.30;;;;;;;18.34;70.79;99054.80;112321;1196;95603;-81
2021/08/23 09:08:28;;;;;;;15.30;7.80;;;;;;;18.33;70.90;99052.55;112301;1204;109743;-83
2021/08/23 09:11:23;;;;;;;16.40;7.80;;;;;;;18.34;70.87;99052.05;112074;1204;97622;-80
2021/08/23 09:14:04;;;;;;;17.20;7.70;;;;;;;18.35;70.83;99047.53;112168;1203;107401;-83
2021/08/23 09:16:43;;;;;;;14.60;8.10;;;;;;;18.34;70.85;99047.83;112278;1197;98730;-85
2021/08/23 09:19:22;;;;;;;14.10;7.10;;;;;;;18.36;71.07;99042.94;112349;1204;95263;-84
2021/08/23 09:22:06;;;;;;;15.10;8.10;;;;;;;18.38;71.05;99040.03;112255;1196;111654;-84
2021/08/23 09:24:40;;;;;;;12.80;6.30;;;;;;;18.32;71.25;99036.88;112256;1204;97646;-83
2021/08/23 09:27:08;;;;;;;16.40;8.20;;;;;;;18.30;71.09;99033.27;112356;1196;107471;-83
2021/08/23 09:30:01;;;;;;;15.80;8.20;;;;;;;18.29;71.44;99036.45;112365;1196;97530;-81
2021/08/23 09:32:53;;;;;;;15.50;8.00;;;;;;;18.34;71.50;99041.00;112310;1197;97672;-82
2021/08/23 09:35:39;;;;;;;15.90;8.20;;;;;;;18.38;71.63;99033.19;112214;1203;111590;-84
2021/08/23 09:38:09;;;;;;;15.60;8.30;;;;;;;18.43;71.58;99032.77;112171;1204;95017;-82
2021/08/23 09:40:39;;;;;;;18.10;8.40;;;;;;;18.49;71.70;99034.54;112346;1197;107721;-82
2021/08/23 09:43:13;;;;;;;19.50;9.50;;;;;;;18.54;71.54;99029.84;112228;1195;97775;-83
2021/08/23 09:46:01;;;;;;;20.10;11.20;;;;;;;18.59;71.61;99033.48;112346;1204;97569;-80
2021/08/23 09:48:29;;;;;;;17.80;9.20;;;;;;;18.65;71.57;99030.75;112296;1196;111211;-81
2021/08/23 09:51:01;;;;;;;17.50;9.50;;;;;;;18.66;71.41;99029.46;112251;1204;97662;-83
2021/08/23 09:53:32;;;;;;;17.30;8.20;;;;;;;18.69;71.52;99030.08;112308;1196;107354;-82
2021/08/23 09:56:02;;;;;;;14.90;7.40;;;;;;;18.68;71.39;99027.45;112331;1196;98052;-80
2021/08/23 09:58:32;;;;;;;14.80;7.60;;;;;;;18.65;71.46;99023.71;112379;1196;97628;-83
2021/08/23 10:01:01;;;;;;;14.90;7.50;;;;;;;18.65;71.72;99018.33;112380;1203;110944;-83
2021/08/23 10:03:32;;;;;;;16.70;8.00;;;;;;;18.69;71.83;99013.75;112383;1203;97554;-83
2021/08/23 10:06:19;;;;;;;15.30;7.00;;;;;;;18.77;71.84;99008.98;112454;1204;106566;-82
2021/08/23 10:08:53;;;;;;;16.60;8.20;;;;;;;18.81;71.83;99009.72;112475;1196;97672;-82
2021/08/23 10:11:23;;;;;;;14.40;7.90;;;;;;;18.89;72.00;99010.83;112357;1198;97534;-83
2021/08/23 10:13:51;;;;;;;16.90;8.30;;;;;;;18.99;72.02;99012.14;112347;1203;111640;-83
2021/08/23 10:16:21;;;;;;;15.00;8.40;;;;;;;19.09;72.02;99015.41;112472;1196;95078;-83
2021/08/23 10:18:50;;;;;;;14.70;7.90;;;;;;;19.19;72.13;99014.30;112683;1197;106968;-82
2021/08/23 10:21:18;;;;;;;15.80;7.60;;;;;;;19.28;72.16;99022.52;112319;1196;97634;-81
2021/08/23 10:23:54;;;;;;;15.90;7.60;;;;;;;19.34;72.15;99024.34;112336;1197;97600;-81
2021/08/23 10:26:25;;;;;;;15.40;7.30;;;;;;;19.39;72.02;99022.17;112211;1197;111108;-82
2021/08/23 10:28:59;;;;;;;17.90;8.00;;;;;;;19.41;71.83;99024.33;112287;1204;97652;-82
2021/08/23 10:31:36;;;;;;;12.60;7.10;;;;;;;19.39;71.67;99020.02;112248;1203;107253;-80
2021/08/23 10:34:11;;;;;;;12.70;6.60;;;;;;;19.30;71.77;99021.17;112368;1197;97633;-82
2021/08/23 10:36:48;;;;;;;14.50;7.30;;;;;;;19.26;71.86;99014.86;112384;1196;95116;-80
2021/08/23 10:39:30;;;;;;;;;;;;;;;19.21;71.76;99013.17;112378;1196;111125;-83
2021/08/23 10:42:20;;;;;;;16.20;7.30;;;;;;;19.13;71.87;99016.63;112321;1204;97576;-83
2021/08/23 10:44:48;;;;;;;15.90;7.30;;;;;;;19.06;71.94;99015.17;112298;1204;107315;-84
2021/08/23 10:47:16;;;;;;;16.40;7.60;;;;;;;19.04;72.20;99017.36;112382;1203;97687;-84
2021/08/23 10:49:49;;;;;;;12.20;6.40;;;;;;;19.07;72.28;99015.11;112427;1197;97594;-84
2021/08/23 10:52:28;;;;;;;11.90;6.60;;;;;;;19.06;72.11;99016.08;112260;1197;111090;-80
2021/08/23 10:54:56;;;;;;;14.90;7.30;;;;;;;18.99;72.08;99016.51;112360;1204;98258;-84
2021/08/23 10:57:31;;;;;;;16.20;8.00;;;;;;;18.96;72.22;99013.92;112336;1196;107399;-82
2021/08/23 11:00:17;;;;;;;17.10;8.30;;;;;;;18.95;72.12;99009.39;112178;1199;97772;-82
2021/08/23 11:02:45;;;;;;;15.00;7.40;;;;;;;18.93;72.45;99007.02;112371;1198;97594;-83
2021/08/23 11:05:20;;;;;;;15.90;7.40;;;;;;;18.98;72.41;99006.02;112344;1197;111058;-80
2021/08/23 11:08:00;;;;;;;14.70;7.30;;;;;;;19.00;72.32;99005.69;112255;1202;97673;-79
2021/08/23 11:10:36;;;;;;;13.90;7.20;;;;;;;19.04;72.53;98999.78;112215;1204;107435;-77
2021/08/23 11:13:19;;;;;;;15.40;7.10;;;;;;;19.10;72.53;98998.19;112242;1204;97583;-78
2021/08/23 11:15:47;;;;;;;13.70;7.10;;;;;;;19.16;72.46;99000.54;112185;1197;97674;-78
2021/08/23 11:18:21;;;;;;;16.70;7.90;;;;;;;19.20;72.35;98996.09;112253;1203;111201;-80
2021/08/23 11:20:56;;;;;;;17.40;8.10;;;;;;;19.22;72.50;99000.70;112303;1203;97588;-79
2021/08/23 11:23:29;;;;;;;16.40;8.20;;;;;;;19.27;72.56;99000.34;112247;1203;107534;-80
2021/08/23 11:26:03;;;;;;;;;;;;;;;19.33;72.36;98997.67;112253;1198;98278;-81
2021/08/23 11:28:33;;;;;;;17.60;8.90;;;;;;;19.33;72.45;98994.80;112431;1197;95205;-81